sensor_id;sensor_type;location;lat;lon;timestamp;P1;durP1;ratioP1;P2;durP2;ratioP2
75535;SDS011;64119;52.070;20.804;2022-11-03T00:01:37;5.30;;;2.10;;
75535;SDS011;64119;52.070;20.804;2022-11-03T00:04:07;4.90;;;1.20;;
75535;SDS011;64119;52.070;20.804;2022-11-03T00:06:37;3.60;;;1.80;;
75535;SDS011;64119;52.070;20.804;2022-11-03T00:09:07;5.80;;;1.60;;
75535;SDS011;64119;52.070;20.804;2022-11-03T00:11:37;4.50;;;1.90;;
75535;SDS011;64119;52.070;20.804;2022-11-03T00:14:06;4.10;;;1.80;;
75535;SDS011;64119;52.070;20.804;2022-11-03T00:16:38;4.90;;;2.30;;
75535;SDS011;64119;52.070;20.804;2022-11-03T00:19:06;5.40;;;1.70;;
75535;SDS011;64119;52.070;20.804;2022-11-03T00:24:04;5.80;;;1.80;;
75535;SDS011;64119;52.070;20.804;2022-11-03T00:26:32;7.20;;;2.30;;
75535;SDS011;64119;52.070;20.804;2022-11-03T00:29:06;3.40;;;2.00;;
75535;SDS011;64119;52.070;20.804;2022-11-03T00:31:36;4.00;;;1.70;;
75535;SDS011;64119;52.070;20.804;2022-11-03T00:34:05;4.50;;;1.90;;
75535;SDS011;64119;52.070;20.804;2022-11-03T00:36:35;3.20;;;1.60;;
75535;SDS011;64119;52.070;20.804;2022-11-03T00:39:05;6.70;;;2.30;;
75535;SDS011;64119;52.070;20.804;2022-11-03T00:41:33;5.70;;;1.90;;
75535;SDS011;64119;52.070;20.804;2022-11-03T00:44:01;4.90;;;2.30;;
75535;SDS011;64119;52.070;20.804;2022-11-03T00:46:29;3.70;;;1.50;;
75535;SDS011;64119;52.070;20.804;2022-11-03T00:49:04;5.80;;;2.20;;
75535;SDS011;64119;52.070;20.804;2022-11-03T00:51:32;4.20;;;2.20;;
75535;SDS011;64119;52.070;20.804;2022-11-03T00:54:04;3.90;;;1.80;;
75535;SDS011;64119;52.070;20.804;2022-11-03T00:56:33;4.90;;;1.70;;
75535;SDS011;64119;52.070;20.804;2022-11-03T00:59:03;6.10;;;2.20;;
75535;SDS011;64119;52.070;20.804;2022-11-03T01:04:07;7.40;;;2.40;;
75535;SDS011;64119;52.070;20.804;2022-11-03T01:06:56;6.80;;;2.70;;
75535;SDS011;64119;52.070;20.804;2022-11-03T01:09:29;4.70;;;2.50;;
75535;SDS011;64119;52.070;20.804;2022-11-03T01:14:42;8.50;;;2.60;;
75535;SDS011;64119;52.070;20.804;2022-11-03T01:17:33;5.70;;;2.30;;
75535;SDS011;64119;52.070;20.804;2022-11-03T01:19:59;6.10;;;2.10;;
75535;SDS011;64119;52.070;20.804;2022-11-03T01:22:27;5.50;;;2.50;;
75535;SDS011;64119;52.070;20.804;2022-11-03T01:24:57;7.10;;;3.70;;
75535;SDS011;64119;52.070;20.804;2022-11-03T01:27:25;6.70;;;3.40;;
75535;SDS011;64119;52.070;20.804;2022-11-03T01:29:53;8.10;;;3.30;;
75535;SDS011;64119;52.070;20.804;2022-11-03T01:32:21;7.80;;;3.20;;
75535;SDS011;64119;52.070;20.804;2022-11-03T01:34:48;5.00;;;2.50;;
75535;SDS011;64119;52.070;20.804;2022-11-03T01:37:16;6.30;;;3.30;;
75535;SDS011;64119;52.070;20.804;2022-11-03T01:39:44;7.40;;;2.90;;
75535;SDS011;64119;52.070;20.804;2022-11-03T01:42:12;4.50;;;3.00;;
75535;SDS011;64119;52.070;20.804;2022-11-03T01:44:42;6.40;;;2.70;;
75535;SDS011;64119;52.070;20.804;2022-11-03T01:47:19;8.20;;;4.00;;
75535;SDS011;64119;52.070;20.804;2022-11-03T01:50:02;7.40;;;3.10;;
75535;SDS011;64119;52.070;20.804;2022-11-03T01:52:52;9.50;;;3.30;;
75535;SDS011;64119;52.070;20.804;2022-11-03T01:55:26;6.60;;;3.30;;
75535;SDS011;64119;52.070;20.804;2022-11-03T01:58:19;10.30;;;3.70;;
75535;SDS011;64119;52.070;20.804;2022-11-03T02:00:49;7.90;;;3.20;;
75535;SDS011;64119;52.070;20.804;2022-11-03T02:03:20;7.00;;;3.00;;
75535;SDS011;64119;52.070;20.804;2022-11-03T02:05:50;5.70;;;3.40;;
75535;SDS011;64119;52.070;20.804;2022-11-03T02:08:27;7.90;;;3.50;;
75535;SDS011;64119;52.070;20.804;2022-11-03T02:11:07;7.60;;;3.40;;
75535;SDS011;64119;52.070;20.804;2022-11-03T02:13:54;6.80;;;3.50;;
75535;SDS011;64119;52.070;20.804;2022-11-03T02:16:22;8.70;;;3.30;;
75535;SDS011;64119;52.070;20.804;2022-11-03T02:18:53;8.00;;;3.40;;
75535;SDS011;64119;52.070;20.804;2022-11-03T02:21:30;6.10;;;2.90;;
75535;SDS011;64119;52.070;20.804;2022-11-03T02:26:58;8.30;;;3.30;;
75535;SDS011;64119;52.070;20.804;2022-11-03T02:29:26;8.70;;;4.10;;
75535;SDS011;64119;52.070;20.804;2022-11-03T02:31:58;7.40;;;3.40;;
75535;SDS011;64119;52.070;20.804;2022-11-03T02:34:37;8.00;;;3.40;;
75535;SDS011;64119;52.070;20.804;2022-11-03T02:37:13;8.80;;;3.90;;
75535;SDS011;64119;52.070;20.804;2022-11-03T02:39:47;6.60;;;2.90;;
75535;SDS011;64119;52.070;20.804;2022-11-03T02:42:20;6.50;;;3.20;;
75535;SDS011;64119;52.070;20.804;2022-11-03T02:44:51;10.10;;;3.70;;
75535;SDS011;64119;52.070;20.804;2022-11-03T02:47:21;8.20;;;3.20;;
75535;SDS011;64119;52.070;20.804;2022-11-03T02:49:52;11.20;;;4.40;;
75535;SDS011;64119;52.070;20.804;2022-11-03T02:52:32;10.70;;;3.60;;
75535;SDS011;64119;52.070;20.804;2022-11-03T03:06:13;5.30;;;3.20;;
75535;SDS011;64119;52.070;20.804;2022-11-03T03:08:47;5.50;;;2.70;;
75535;SDS011;64119;52.070;20.804;2022-11-03T03:11:20;8.90;;;3.80;;
75535;SDS011;64119;52.070;20.804;2022-11-03T03:16:52;7.70;;;3.00;;
75535;SDS011;64119;52.070;20.804;2022-11-03T03:19:40;9.80;;;3.00;;
75535;SDS011;64119;52.070;20.804;2022-11-03T03:22:20;6.80;;;3.40;;
75535;SDS011;64119;52.070;20.804;2022-11-03T03:27:32;6.10;;;3.90;;
75535;SDS011;64119;52.070;20.804;2022-11-03T03:30:04;11.20;;;4.30;;
75535;SDS011;64119;52.070;20.804;2022-11-03T03:32:35;8.30;;;4.20;;
75535;SDS011;64119;52.070;20.804;2022-11-03T03:35:12;10.10;;;3.50;;
75535;SDS011;64119;52.070;20.804;2022-11-03T03:37:45;7.90;;;2.90;;
75535;SDS011;64119;52.070;20.804;2022-11-03T03:40:20;8.30;;;3.40;;
75535;SDS011;64119;52.070;20.804;2022-11-03T03:42:52;7.70;;;3.70;;
75535;SDS011;64119;52.070;20.804;2022-11-03T03:45:20;6.60;;;3.50;;
75535;SDS011;64119;52.070;20.804;2022-11-03T03:47:48;6.20;;;3.00;;
75535;SDS011;64119;52.070;20.804;2022-11-03T03:50:21;9.30;;;3.80;;
75535;SDS011;64119;52.070;20.804;2022-11-03T03:55:21;8.40;;;3.80;;
75535;SDS011;64119;52.070;20.804;2022-11-03T03:57:57;6.80;;;3.10;;
75535;SDS011;64119;52.070;20.804;2022-11-03T04:00:27;7.50;;;3.50;;
75535;SDS011;64119;52.070;20.804;2022-11-03T04:02:57;8.50;;;3.00;;
75535;SDS011;64119;52.070;20.804;2022-11-03T04:05:26;5.60;;;3.00;;
75535;SDS011;64119;52.070;20.804;2022-11-03T04:07:54;6.80;;;2.70;;
75535;SDS011;64119;52.070;20.804;2022-11-03T04:10:21;7.70;;;3.20;;
75535;SDS011;64119;52.070;20.804;2022-11-03T04:12:49;6.80;;;4.00;;
75535;SDS011;64119;52.070;20.804;2022-11-03T04:15:41;8.60;;;3.50;;
75535;SDS011;64119;52.070;20.804;2022-11-03T04:18:27;8.20;;;3.30;;
75535;SDS011;64119;52.070;20.804;2022-11-03T04:21:13;8.50;;;3.10;;
75535;SDS011;64119;52.070;20.804;2022-11-03T04:24:00;5.70;;;2.60;;
75535;SDS011;64119;52.070;20.804;2022-11-03T04:26:28;3.50;;;2.70;;
75535;SDS011;64119;52.070;20.804;2022-11-03T04:28:56;4.60;;;2.70;;
75535;SDS011;64119;52.070;20.804;2022-11-03T04:31:24;6.70;;;2.80;;
75535;SDS011;64119;52.070;20.804;2022-11-03T04:33:53;7.10;;;2.60;;
75535;SDS011;64119;52.070;20.804;2022-11-03T04:36:22;8.40;;;3.60;;
75535;SDS011;64119;52.070;20.804;2022-11-03T04:38:51;8.30;;;4.00;;
75535;SDS011;64119;52.070;20.804;2022-11-03T04:41:20;7.90;;;3.30;;
75535;SDS011;64119;52.070;20.804;2022-11-03T04:43:51;7.40;;;2.80;;
75535;SDS011;64119;52.070;20.804;2022-11-03T04:46:26;5.80;;;2.60;;
75535;SDS011;64119;52.070;20.804;2022-11-03T04:51:28;5.40;;;2.90;;
75535;SDS011;64119;52.070;20.804;2022-11-03T04:54:02;7.10;;;3.40;;
75535;SDS011;64119;52.070;20.804;2022-11-03T04:56:33;6.80;;;3.60;;
75535;SDS011;64119;52.070;20.804;2022-11-03T04:59:01;12.80;;;3.70;;
75535;SDS011;64119;52.070;20.804;2022-11-03T05:01:29;6.50;;;3.30;;
75535;SDS011;64119;52.070;20.804;2022-11-03T05:03:57;5.20;;;2.90;;
75535;SDS011;64119;52.070;20.804;2022-11-03T05:06:27;6.70;;;2.90;;
75535;SDS011;64119;52.070;20.804;2022-11-03T05:09:00;7.40;;;2.70;;
75535;SDS011;64119;52.070;20.804;2022-11-03T05:11:36;4.20;;;2.50;;
75535;SDS011;64119;52.070;20.804;2022-11-03T05:14:15;4.60;;;2.70;;
75535;SDS011;64119;52.070;20.804;2022-11-03T05:16:47;6.60;;;2.80;;
75535;SDS011;64119;52.070;20.804;2022-11-03T05:22:04;7.20;;;3.70;;
75535;SDS011;64119;52.070;20.804;2022-11-03T05:24:39;6.80;;;3.50;;
75535;SDS011;64119;52.070;20.804;2022-11-03T05:27:08;5.70;;;2.90;;
75535;SDS011;64119;52.070;20.804;2022-11-03T05:29:48;8.10;;;3.50;;
75535;SDS011;64119;52.070;20.804;2022-11-03T05:32:27;7.90;;;3.10;;
75535;SDS011;64119;52.070;20.804;2022-11-03T05:34:56;8.30;;;2.90;;
75535;SDS011;64119;52.070;20.804;2022-11-03T05:37:25;5.40;;;2.70;;
75535;SDS011;64119;52.070;20.804;2022-11-03T05:42:38;6.70;;;3.50;;
75535;SDS011;64119;52.070;20.804;2022-11-03T05:47:47;7.10;;;3.00;;
75535;SDS011;64119;52.070;20.804;2022-11-03T05:52:49;4.90;;;2.90;;
75535;SDS011;64119;52.070;20.804;2022-11-03T05:55:23;6.50;;;2.90;;
75535;SDS011;64119;52.070;20.804;2022-11-03T05:57:56;5.40;;;2.90;;
75535;SDS011;64119;52.070;20.804;2022-11-03T06:00:32;6.40;;;3.30;;
75535;SDS011;64119;52.070;20.804;2022-11-03T06:03:04;10.70;;;4.20;;
75535;SDS011;64119;52.070;20.804;2022-11-03T06:05:32;8.40;;;4.20;;
75535;SDS011;64119;52.070;20.804;2022-11-03T06:08:02;6.00;;;3.10;;
75535;SDS011;64119;52.070;20.804;2022-11-03T06:10:40;5.30;;;3.30;;
75535;SDS011;64119;52.070;20.804;2022-11-03T06:13:15;6.00;;;3.40;;
75535;SDS011;64119;52.070;20.804;2022-11-03T06:15:47;6.90;;;3.40;;
75535;SDS011;64119;52.070;20.804;2022-11-03T06:18:18;8.10;;;4.20;;
75535;SDS011;64119;52.070;20.804;2022-11-03T06:20:53;9.70;;;3.70;;
75535;SDS011;64119;52.070;20.804;2022-11-03T06:23:23;7.50;;;3.80;;
75535;SDS011;64119;52.070;20.804;2022-11-03T06:25:51;11.90;;;4.20;;
75535;SDS011;64119;52.070;20.804;2022-11-03T06:28:25;5.60;;;3.40;;
75535;SDS011;64119;52.070;20.804;2022-11-03T06:31:01;9.10;;;3.40;;
75535;SDS011;64119;52.070;20.804;2022-11-03T06:33:43;6.30;;;2.80;;
75535;SDS011;64119;52.070;20.804;2022-11-03T06:39:21;6.70;;;3.00;;
75535;SDS011;64119;52.070;20.804;2022-11-03T06:41:50;8.10;;;3.20;;
75535;SDS011;64119;52.070;20.804;2022-11-03T06:44:22;7.80;;;4.20;;
75535;SDS011;64119;52.070;20.804;2022-11-03T06:46:55;8.80;;;4.50;;
75535;SDS011;64119;52.070;20.804;2022-11-03T06:49:27;9.10;;;3.70;;
75535;SDS011;64119;52.070;20.804;2022-11-03T06:51:57;7.50;;;4.20;;
75535;SDS011;64119;52.070;20.804;2022-11-03T06:54:32;6.90;;;4.00;;
75535;SDS011;64119;52.070;20.804;2022-11-03T06:57:00;7.70;;;3.70;;
75535;SDS011;64119;52.070;20.804;2022-11-03T06:59:30;7.40;;;3.50;;
75535;SDS011;64119;52.070;20.804;2022-11-03T07:01:58;7.70;;;3.60;;
75535;SDS011;64119;52.070;20.804;2022-11-03T07:04:25;6.50;;;3.80;;
75535;SDS011;64119;52.070;20.804;2022-11-03T07:06:56;8.50;;;3.50;;
75535;SDS011;64119;52.070;20.804;2022-11-03T07:09:29;6.50;;;3.00;;
75535;SDS011;64119;52.070;20.804;2022-11-03T07:11:57;5.60;;;3.40;;
75535;SDS011;64119;52.070;20.804;2022-11-03T07:14:27;8.00;;;3.40;;
75535;SDS011;64119;52.070;20.804;2022-11-03T07:16:59;8.30;;;3.40;;
75535;SDS011;64119;52.070;20.804;2022-11-03T07:22:15;6.70;;;3.30;;
75535;SDS011;64119;52.070;20.804;2022-11-03T07:24:49;6.40;;;3.00;;
75535;SDS011;64119;52.070;20.804;2022-11-03T07:27:21;4.80;;;2.90;;
75535;SDS011;64119;52.070;20.804;2022-11-03T07:29:52;5.60;;;3.30;;
75535;SDS011;64119;52.070;20.804;2022-11-03T07:32:28;8.60;;;3.50;;
75535;SDS011;64119;52.070;20.804;2022-11-03T07:35:44;5.00;;;3.10;;
75535;SDS011;64119;52.070;20.804;2022-11-03T07:38:27;8.10;;;3.80;;
75535;SDS011;64119;52.070;20.804;2022-11-03T07:40:56;5.50;;;2.70;;
75535;SDS011;64119;52.070;20.804;2022-11-03T07:43:27;6.10;;;2.50;;
75535;SDS011;64119;52.070;20.804;2022-11-03T07:45:58;6.40;;;2.90;;
75535;SDS011;64119;52.070;20.804;2022-11-03T07:54:33;7.20;;;3.00;;
75535;SDS011;64119;52.070;20.804;2022-11-03T07:57:51;5.50;;;2.50;;
75535;SDS011;64119;52.070;20.804;2022-11-03T07:59:57;5.40;;;3.30;;
75535;SDS011;64119;52.070;20.804;2022-11-03T08:02:47;6.40;;;2.80;;
75535;SDS011;64119;52.070;20.804;2022-11-03T08:05:22;4.50;;;2.90;;
75535;SDS011;64119;52.070;20.804;2022-11-03T08:07:50;7.10;;;3.30;;
75535;SDS011;64119;52.070;20.804;2022-11-03T08:10:18;7.20;;;2.50;;
75535;SDS011;64119;52.070;20.804;2022-11-03T08:12:47;4.50;;;2.60;;
75535;SDS011;64119;52.070;20.804;2022-11-03T08:15:15;5.90;;;2.50;;
75535;SDS011;64119;52.070;20.804;2022-11-03T08:17:43;7.10;;;2.70;;
75535;SDS011;64119;52.070;20.804;2022-11-03T08:20:10;6.90;;;2.80;;
75535;SDS011;64119;52.070;20.804;2022-11-03T08:22:38;5.10;;;2.20;;
75535;SDS011;64119;52.070;20.804;2022-11-03T08:25:12;9.70;;;3.00;;
75535;SDS011;64119;52.070;20.804;2022-11-03T08:27:40;6.20;;;2.20;;
75535;SDS011;64119;52.070;20.804;2022-11-03T08:30:08;4.00;;;2.00;;
75535;SDS011;64119;52.070;20.804;2022-11-03T08:32:36;6.60;;;2.50;;
75535;SDS011;64119;52.070;20.804;2022-11-03T08:35:06;5.20;;;2.40;;
75535;SDS011;64119;52.070;20.804;2022-11-03T08:37:34;6.30;;;2.30;;
75535;SDS011;64119;52.070;20.804;2022-11-03T08:40:02;6.70;;;2.30;;
75535;SDS011;64119;52.070;20.804;2022-11-03T08:42:30;5.70;;;2.10;;
75535;SDS011;64119;52.070;20.804;2022-11-03T08:44:58;6.90;;;2.20;;
75535;SDS011;64119;52.070;20.804;2022-11-03T08:47:26;4.20;;;1.80;;
75535;SDS011;64119;52.070;20.804;2022-11-03T08:49:53;5.20;;;1.80;;
75535;SDS011;64119;52.070;20.804;2022-11-03T08:52:21;5.00;;;2.10;;
75535;SDS011;64119;52.070;20.804;2022-11-03T08:54:49;6.10;;;2.20;;
75535;SDS011;64119;52.070;20.804;2022-11-03T08:57:17;5.10;;;2.30;;
75535;SDS011;64119;52.070;20.804;2022-11-03T08:59:45;5.90;;;2.40;;
75535;SDS011;64119;52.070;20.804;2022-11-03T09:02:12;5.20;;;1.90;;
75535;SDS011;64119;52.070;20.804;2022-11-03T09:04:40;6.80;;;2.10;;
75535;SDS011;64119;52.070;20.804;2022-11-03T09:07:08;5.00;;;1.80;;
75535;SDS011;64119;52.070;20.804;2022-11-03T09:09:36;5.40;;;1.90;;
75535;SDS011;64119;52.070;20.804;2022-11-03T09:12:23;5.50;;;1.90;;
75535;SDS011;64119;52.070;20.804;2022-11-03T09:14:51;5.30;;;2.00;;
75535;SDS011;64119;52.070;20.804;2022-11-03T09:17:19;5.40;;;1.90;;
75535;SDS011;64119;52.070;20.804;2022-11-03T09:19:46;4.70;;;2.10;;
75535;SDS011;64119;52.070;20.804;2022-11-03T09:22:14;6.80;;;1.80;;
75535;SDS011;64119;52.070;20.804;2022-11-03T09:24:42;5.10;;;2.00;;
75535;SDS011;64119;52.070;20.804;2022-11-03T09:27:10;4.60;;;1.60;;
75535;SDS011;64119;52.070;20.804;2022-11-03T09:29:38;5.90;;;2.20;;
75535;SDS011;64119;52.070;20.804;2022-11-03T09:32:26;5.10;;;1.70;;
75535;SDS011;64119;52.070;20.804;2022-11-03T09:34:54;6.80;;;2.40;;
75535;SDS011;64119;52.070;20.804;2022-11-03T09:37:21;5.20;;;1.60;;
75535;SDS011;64119;52.070;20.804;2022-11-03T09:39:51;4.50;;;2.00;;
75535;SDS011;64119;52.070;20.804;2022-11-03T09:42:19;3.40;;;1.70;;
75535;SDS011;64119;52.070;20.804;2022-11-03T09:44:48;7.20;;;2.00;;
75535;SDS011;64119;52.070;20.804;2022-11-03T09:47:19;4.70;;;2.00;;
75535;SDS011;64119;52.070;20.804;2022-11-03T09:49:50;4.00;;;1.30;;
75535;SDS011;64119;52.070;20.804;2022-11-03T09:52:20;5.70;;;1.40;;
75535;SDS011;64119;52.070;20.804;2022-11-03T09:54:50;5.80;;;1.50;;
75535;SDS011;64119;52.070;20.804;2022-11-03T09:57:21;4.00;;;1.30;;
75535;SDS011;64119;52.070;20.804;2022-11-03T09:59:53;6.10;;;1.90;;
75535;SDS011;64119;52.070;20.804;2022-11-03T10:02:24;6.00;;;1.70;;
75535;SDS011;64119;52.070;20.804;2022-11-03T10:04:55;5.60;;;1.60;;
75535;SDS011;64119;52.070;20.804;2022-11-03T10:07:25;4.60;;;1.20;;
75535;SDS011;64119;52.070;20.804;2022-11-03T10:09:55;5.00;;;1.90;;
75535;SDS011;64119;52.070;20.804;2022-11-03T10:12:24;4.00;;;1.60;;
75535;SDS011;64119;52.070;20.804;2022-11-03T10:14:52;3.40;;;1.80;;
75535;SDS011;64119;52.070;20.804;2022-11-03T10:17:24;5.80;;;1.60;;
75535;SDS011;64119;52.070;20.804;2022-11-03T10:19:58;4.10;;;1.30;;
75535;SDS011;64119;52.070;20.804;2022-11-03T10:22:28;3.80;;;1.50;;
75535;SDS011;64119;52.070;20.804;2022-11-03T10:30:48;4.50;;;1.60;;
75535;SDS011;64119;52.070;20.804;2022-11-03T10:33:40;3.50;;;1.40;;
75535;SDS011;64119;52.070;20.804;2022-11-03T10:38:46;5.60;;;1.10;;
75535;SDS011;64119;52.070;20.804;2022-11-03T10:41:15;5.80;;;1.40;;
75535;SDS011;64119;52.070;20.804;2022-11-03T10:46:27;4.30;;;1.30;;
75535;SDS011;64119;52.070;20.804;2022-11-03T10:49:18;4.30;;;1.20;;
75535;SDS011;64119;52.070;20.804;2022-11-03T10:51:48;7.10;;;1.40;;
75535;SDS011;64119;52.070;20.804;2022-11-03T10:54:21;5.90;;;1.10;;
75535;SDS011;64119;52.070;20.804;2022-11-03T10:56:50;5.70;;;1.50;;
75535;SDS011;64119;52.070;20.804;2022-11-03T10:59:54;4.80;;;1.30;;
75535;SDS011;64119;52.070;20.804;2022-11-03T11:02:19;3.00;;;1.00;;
75535;SDS011;64119;52.070;20.804;2022-11-03T11:04:50;3.00;;;1.30;;
75535;SDS011;64119;52.070;20.804;2022-11-03T11:07:32;3.80;;;1.20;;
75535;SDS011;64119;52.070;20.804;2022-11-03T11:10:06;3.80;;;1.20;;
75535;SDS011;64119;52.070;20.804;2022-11-03T11:13:00;5.00;;;1.30;;
75535;SDS011;64119;52.070;20.804;2022-11-03T11:15:39;4.70;;;1.50;;
75535;SDS011;64119;52.070;20.804;2022-11-03T11:18:07;4.80;;;2.10;;
75535;SDS011;64119;52.070;20.804;2022-11-03T11:20:39;4.70;;;1.50;;
75535;SDS011;64119;52.070;20.804;2022-11-03T11:28:39;4.10;;;1.20;;
75535;SDS011;64119;52.070;20.804;2022-11-03T11:36:39;3.70;;;1.00;;
75535;SDS011;64119;52.070;20.804;2022-11-03T11:39:11;3.20;;;1.20;;
75535;SDS011;64119;52.070;20.804;2022-11-03T11:52:37;16.20;;;2.50;;
75535;SDS011;64119;52.070;20.804;2022-11-03T11:55:23;8.30;;;1.00;;
75535;SDS011;64119;52.070;20.804;2022-11-03T11:57:57;2.20;;;0.90;;
75535;SDS011;64119;52.070;20.804;2022-11-03T12:00:28;5.20;;;0.90;;
75535;SDS011;64119;52.070;20.804;2022-11-03T12:02:59;4.60;;;1.10;;
75535;SDS011;64119;52.070;20.804;2022-11-03T12:05:30;5.90;;;1.30;;
75535;SDS011;64119;52.070;20.804;2022-11-03T12:08:00;4.40;;;1.00;;
75535;SDS011;64119;52.070;20.804;2022-11-03T12:10:29;4.00;;;0.90;;
75535;SDS011;64119;52.070;20.804;2022-11-03T12:21:09;3.40;;;0.70;;
75535;SDS011;64119;52.070;20.804;2022-11-03T12:23:41;3.60;;;2.10;;
75535;SDS011;64119;52.070;20.804;2022-11-03T12:28:53;6.10;;;1.40;;
75535;SDS011;64119;52.070;20.804;2022-11-03T12:31:21;6.80;;;1.30;;
75535;SDS011;64119;52.070;20.804;2022-11-03T12:33:49;8.20;;;1.50;;
75535;SDS011;64119;52.070;20.804;2022-11-03T12:36:16;4.20;;;1.00;;
75535;SDS011;64119;52.070;20.804;2022-11-03T12:38:44;3.20;;;1.10;;
75535;SDS011;64119;52.070;20.804;2022-11-03T12:41:12;3.60;;;1.20;;
75535;SDS011;64119;52.070;20.804;2022-11-03T12:43:48;6.50;;;1.40;;
75535;SDS011;64119;52.070;20.804;2022-11-03T12:46:18;4.90;;;1.00;;
75535;SDS011;64119;52.070;20.804;2022-11-03T12:48:47;2.30;;;0.90;;
75535;SDS011;64119;52.070;20.804;2022-11-03T12:51:16;3.10;;;1.20;;
75535;SDS011;64119;52.070;20.804;2022-11-03T12:53:45;3.50;;;1.10;;
75535;SDS011;64119;52.070;20.804;2022-11-03T12:56:14;4.00;;;1.10;;
75535;SDS011;64119;52.070;20.804;2022-11-03T12:58:42;4.20;;;1.00;;
75535;SDS011;64119;52.070;20.804;2022-11-03T13:01:10;3.60;;;0.80;;
75535;SDS011;64119;52.070;20.804;2022-11-03T13:03:38;3.10;;;1.30;;
75535;SDS011;64119;52.070;20.804;2022-11-03T13:06:06;3.70;;;1.20;;
75535;SDS011;64119;52.070;20.804;2022-11-03T13:08:36;3.10;;;1.50;;
75535;SDS011;64119;52.070;20.804;2022-11-03T13:11:04;3.20;;;1.20;;
75535;SDS011;64119;52.070;20.804;2022-11-03T13:13:56;3.40;;;1.20;;
75535;SDS011;64119;52.070;20.804;2022-11-03T13:16:24;1.80;;;0.70;;
75535;SDS011;64119;52.070;20.804;2022-11-03T13:18:52;4.60;;;1.20;;
75535;SDS011;64119;52.070;20.804;2022-11-03T13:21:19;2.90;;;0.90;;
75535;SDS011;64119;52.070;20.804;2022-11-03T13:23:47;3.60;;;1.10;;
75535;SDS011;64119;52.070;20.804;2022-11-03T13:26:15;4.00;;;0.90;;
75535;SDS011;64119;52.070;20.804;2022-11-03T13:28:43;4.60;;;1.20;;
75535;SDS011;64119;52.070;20.804;2022-11-03T13:31:10;3.20;;;0.90;;
75535;SDS011;64119;52.070;20.804;2022-11-03T13:33:39;2.40;;;1.00;;
75535;SDS011;64119;52.070;20.804;2022-11-03T13:36:07;6.20;;;1.20;;
75535;SDS011;64119;52.070;20.804;2022-11-03T13:38:34;5.90;;;1.10;;
75535;SDS011;64119;52.070;20.804;2022-11-03T13:41:02;6.10;;;1.20;;
75535;SDS011;64119;52.070;20.804;2022-11-03T13:43:35;6.60;;;1.70;;
75535;SDS011;64119;52.070;20.804;2022-11-03T13:46:03;6.20;;;1.20;;
75535;SDS011;64119;52.070;20.804;2022-11-03T13:48:31;6.50;;;1.30;;
75535;SDS011;64119;52.070;20.804;2022-11-03T13:53:48;4.80;;;1.10;;
75535;SDS011;64119;52.070;20.804;2022-11-03T13:56:35;5.80;;;1.40;;
75535;SDS011;64119;52.070;20.804;2022-11-03T13:59:23;3.70;;;1.20;;
75535;SDS011;64119;52.070;20.804;2022-11-03T14:01:51;4.00;;;1.00;;
75535;SDS011;64119;52.070;20.804;2022-11-03T14:04:39;7.80;;;0.90;;
75535;SDS011;64119;52.070;20.804;2022-11-03T14:07:11;4.80;;;1.50;;
75535;SDS011;64119;52.070;20.804;2022-11-03T14:09:39;3.40;;;1.10;;
75535;SDS011;64119;52.070;20.804;2022-11-03T14:12:07;5.80;;;1.40;;
75535;SDS011;64119;52.070;20.804;2022-11-03T14:14:53;3.40;;;1.20;;
75535;SDS011;64119;52.070;20.804;2022-11-03T14:17:21;4.50;;;1.50;;
75535;SDS011;64119;52.070;20.804;2022-11-03T14:19:51;5.90;;;1.30;;
75535;SDS011;64119;52.070;20.804;2022-11-03T14:22:24;5.10;;;1.20;;
75535;SDS011;64119;52.070;20.804;2022-11-03T14:24:51;3.10;;;1.20;;
75535;SDS011;64119;52.070;20.804;2022-11-03T14:27:19;11.80;;;2.10;;
75535;SDS011;64119;52.070;20.804;2022-11-03T14:29:47;6.00;;;1.40;;
75535;SDS011;64119;52.070;20.804;2022-11-03T14:32:18;4.20;;;1.60;;
75535;SDS011;64119;52.070;20.804;2022-11-03T14:34:46;6.00;;;1.30;;
75535;SDS011;64119;52.070;20.804;2022-11-03T14:37:15;4.10;;;1.30;;
75535;SDS011;64119;52.070;20.804;2022-11-03T14:39:42;8.30;;;2.10;;
75535;SDS011;64119;52.070;20.804;2022-11-03T14:42:11;7.80;;;2.00;;
75535;SDS011;64119;52.070;20.804;2022-11-03T14:44:44;9.20;;;2.00;;
75535;SDS011;64119;52.070;20.804;2022-11-03T14:47:14;5.30;;;1.40;;
75535;SDS011;64119;52.070;20.804;2022-11-03T14:49:48;5.90;;;1.40;;
75535;SDS011;64119;52.070;20.804;2022-11-03T14:52:16;4.50;;;1.40;;
75535;SDS011;64119;52.070;20.804;2022-11-03T14:54:44;4.00;;;1.60;;
75535;SDS011;64119;52.070;20.804;2022-11-03T14:57:11;5.20;;;1.80;;
75535;SDS011;64119;52.070;20.804;2022-11-03T14:59:39;3.90;;;1.60;;
75535;SDS011;64119;52.070;20.804;2022-11-03T15:02:08;7.00;;;1.90;;
75535;SDS011;64119;52.070;20.804;2022-11-03T15:04:36;4.50;;;1.70;;
75535;SDS011;64119;52.070;20.804;2022-11-03T15:07:04;6.40;;;2.40;;
75535;SDS011;64119;52.070;20.804;2022-11-03T15:09:32;6.70;;;1.70;;
75535;SDS011;64119;52.070;20.804;2022-11-03T15:12:00;5.40;;;1.60;;
75535;SDS011;64119;52.070;20.804;2022-11-03T15:14:27;6.40;;;1.70;;
75535;SDS011;64119;52.070;20.804;2022-11-03T15:16:56;6.10;;;2.10;;
75535;SDS011;64119;52.070;20.804;2022-11-03T15:19:23;6.50;;;1.80;;
75535;SDS011;64119;52.070;20.804;2022-11-03T15:21:51;6.10;;;1.90;;
75535;SDS011;64119;52.070;20.804;2022-11-03T15:24:19;7.60;;;2.50;;
75535;SDS011;64119;52.070;20.804;2022-11-03T15:27:07;3.90;;;1.80;;
75535;SDS011;64119;52.070;20.804;2022-11-03T15:29:34;8.80;;;2.20;;
75535;SDS011;64119;52.070;20.804;2022-11-03T15:32:04;7.70;;;2.20;;
75535;SDS011;64119;52.070;20.804;2022-11-03T15:34:32;10.10;;;2.20;;
75535;SDS011;64119;52.070;20.804;2022-11-03T15:36:59;7.20;;;2.20;;
75535;SDS011;64119;52.070;20.804;2022-11-03T15:39:27;10.70;;;2.60;;
75535;SDS011;64119;52.070;20.804;2022-11-03T15:41:56;11.20;;;3.00;;
75535;SDS011;64119;52.070;20.804;2022-11-03T15:44:24;6.30;;;2.00;;
75535;SDS011;64119;52.070;20.804;2022-11-03T15:46:52;5.50;;;2.10;;
75535;SDS011;64119;52.070;20.804;2022-11-03T15:49:20;5.80;;;2.20;;
75535;SDS011;64119;52.070;20.804;2022-11-03T15:51:47;4.40;;;2.40;;
75535;SDS011;64119;52.070;20.804;2022-11-03T15:54:15;6.70;;;2.30;;
75535;SDS011;64119;52.070;20.804;2022-11-03T15:56:43;7.30;;;2.40;;
75535;SDS011;64119;52.070;20.804;2022-11-03T15:59:10;6.80;;;2.50;;
75535;SDS011;64119;52.070;20.804;2022-11-03T16:01:38;6.50;;;2.50;;
75535;SDS011;64119;52.070;20.804;2022-11-03T16:04:06;5.40;;;2.70;;
75535;SDS011;64119;52.070;20.804;2022-11-03T16:06:34;5.40;;;2.20;;
75535;SDS011;64119;52.070;20.804;2022-11-03T16:09:21;4.90;;;2.30;;
75535;SDS011;64119;52.070;20.804;2022-11-03T16:11:49;6.70;;;2.90;;
75535;SDS011;64119;52.070;20.804;2022-11-03T16:14:17;5.50;;;3.10;;
75535;SDS011;64119;52.070;20.804;2022-11-03T16:16:45;8.80;;;4.10;;
75535;SDS011;64119;52.070;20.804;2022-11-03T16:19:12;6.90;;;3.70;;
75535;SDS011;64119;52.070;20.804;2022-11-03T16:21:40;7.90;;;3.60;;
75535;SDS011;64119;52.070;20.804;2022-11-03T16:24:08;6.20;;;3.30;;
75535;SDS011;64119;52.070;20.804;2022-11-03T16:26:36;5.90;;;3.30;;
75535;SDS011;64119;52.070;20.804;2022-11-03T16:29:03;7.20;;;3.30;;
75535;SDS011;64119;52.070;20.804;2022-11-03T16:31:31;7.90;;;4.10;;
75535;SDS011;64119;52.070;20.804;2022-11-03T16:33:59;10.80;;;4.90;;
75535;SDS011;64119;52.070;20.804;2022-11-03T16:36:27;15.90;;;6.80;;
75535;SDS011;64119;52.070;20.804;2022-11-03T16:38:55;11.70;;;5.70;;
75535;SDS011;64119;52.070;20.804;2022-11-03T16:41:23;14.00;;;7.10;;